METAR Data
IDs: Format: Raw Decoded Include TAF

Data at: 1156 UTC 23 Sep 2018

KRZR 231135Z AUTO 00000KT 10SM OVC100 19/19 A3003 RMK A01
KRZR 231115Z AUTO 00000KT 9SM OVC100 19/19 A3002 RMK A01
KRZR 231055Z AUTO 00000KT 10SM SCT095 19/19 A3003 RMK A01
KRZR 231035Z AUTO 00000KT 5SM BR CLR 19/19 A3003 RMK A01
KRZR 231015Z AUTO 00000KT 10SM CLR 19/19 A3002 RMK A01
KRZR 230955Z AUTO 00000KT 1 1/2SM BR CLR 19/19 A3002 RMK A01
KRZR 230935Z AUTO 00000KT 8SM CLR 19/19 A3002 RMK A01
KRZR 230915Z AUTO 00000KT 9SM CLR 19/19 A3002 RMK A01
KRZR 230855Z AUTO 00000KT 9SM CLR 20/20 A3003 RMK A01
KRZR 230835Z AUTO 00000KT 10SM FEW060 20/20 A3003 RMK A01
KRZR 230815Z AUTO 00000KT 8SM SCT055 19/19 A3002 RMK A01
KRZR 230755Z AUTO 00000KT 10SM SCT060 20/20 A3002 RMK A01
KRZR 230735Z AUTO 00000KT 10SM BKN055 BKN065 20/20 A3002 RMK A01
KRZR 230715Z AUTO 00000KT 10SM SCT050 20/20 A3003 RMK A01
KRZR 230655Z AUTO 00000KT 10SM FEW060 21/20 A3002 RMK A01
KRZR 230635Z AUTO 00000KT 10SM FEW060 21/20 A3003 RMK A01
KRZR 230615Z AUTO 00000KT 10SM CLR 21/21 A3003 RMK A01
KRZR 230555Z AUTO 00000KT 10SM CLR 21/21 A3003 RMK A01
KRZR 230535Z AUTO 00000KT 10SM CLR 22/21 A3003 RMK A01
KRZR 230515Z AUTO 00000KT 10SM FEW070 22/21 A3003 RMK A01
KRZR 230455Z AUTO 00000KT 10SM BKN065 22/21 A3004 RMK A01
KRZR 230435Z AUTO 00000KT 10SM FEW070 FEW080 FEW085 22/21 A3004 RMK A01
KRZR 230415Z AUTO 00000KT 10SM BKN065 BKN080 BKN085 22/21 A3004 RMK A01
KRZR 230355Z AUTO 00000KT 10SM BKN060 22/21 A3004 RMK A01
KRZR 230335Z AUTO 00000KT 10SM BKN060 OVC070 23/21 A3004 RMK A01
KRZR 230315Z AUTO 00000KT 10SM BKN060 23/21 A3003 RMK A01
KRZR 230255Z AUTO 00000KT 10SM SCT060 24/21 A3003 RMK A01
KRZR 230235Z AUTO 00000KT 10SM SCT055 25/21 A3003 RMK A01
KRZR 230215Z AUTO 00000KT 10SM FEW055 25/21 A3003 RMK A01
KRZR 230155Z AUTO 00000KT 10SM CLR 23/21 A3003 RMK A01
KRZR 230135Z AUTO 00000KT 10SM CLR 23/21 A3003 RMK A01
KRZR 230115Z AUTO 00000KT 10SM CLR 23/21 A3002 RMK A01
KRZR 230055Z AUTO 00000KT 10SM CLR 24/21 A3001 RMK A01
KRZR 230035Z AUTO 00000KT 10SM CLR 24/21 A3001 RMK A01
KRZR 230015Z AUTO 00000KT 10SM CLR 25/21 A3000 RMK A01
KRZR 222355Z AUTO 00000KT 10SM CLR 25/21 A3000 RMK A01
KRZR 222335Z AUTO 00000KT 10SM CLR 26/21 A3000 RMK A01
KRZR 222315Z AUTO 00000KT 10SM CLR 27/20 A3000 RMK A01
KRZR 222255Z AUTO 00000KT 10SM CLR 27/20 A2999 RMK A01
KRZR 222235Z AUTO 00000KT 10SM CLR 28/20 A2998 RMK A01
KRZR 222215Z AUTO VRB03KT 10SM CLR 30/19 A2998 RMK A01
KRZR 222155Z AUTO 17005KT 10SM CLR 32/17 A2998 RMK A01
KRZR 222135Z AUTO 18004KT 10SM CLR 32/17 A2998 RMK A01
KRZR 222115Z AUTO VRB06KT 10SM CLR 32/17 A2998 RMK A01
KRZR 222055Z AUTO 18006KT 10SM CLR 32/17 A2998 RMK A01
KRZR 222035Z AUTO VRB04KT 10SM CLR 32/19 A2999 RMK A01
KRZR 222015Z AUTO VRB03G10KT 10SM FEW055 SCT065 32/18 A3000 RMK A01
KRZR 221955Z AUTO VRB06KT 10SM SCT055 SCT065 33/19 A3000 RMK A01
KRZR 221935Z AUTO 23006KT 10SM FEW050 33/18 A3001 RMK A01
KRZR 221915Z AUTO 23005G11KT 10SM CLR 32/18 A3003 RMK A01
KRZR 221855Z AUTO 27004G10KT 10SM FEW050 FEW055 32/19 A3004 RMK A01
KRZR 221835Z AUTO VRB05KT 10SM FEW049 SCT060 32/20 A3005 RMK A01
KRZR 221815Z AUTO 00000KT 10SM SCT044 SCT050 SCT065 31/20 A3006 RMK A01
KRZR 221755Z AUTO 21006KT 10SM SCT043 SCT060 BKN080 31/20 A3007 RMK A01
KRZR 221735Z AUTO 25010G23KT 150V280 10SM BKN042 BKN060 32/20 A3008 RMK A01
KRZR 221715Z AUTO 17005KT 10SM FEW044 31/20 A3008 RMK A01
KRZR 221655Z AUTO VRB04KT 10SM CLR 31/20 A3009 RMK A01
KRZR 221635Z AUTO VRB06KT 10SM CLR 30/21 A3009 RMK A01
KRZR 221615Z AUTO 21006KT 10SM CLR 30/21 A3010 RMK A01
KRZR 221555Z AUTO 21005G10KT 10SM CLR 29/21 A3010 RMK A01
KRZR 221535Z AUTO 23004KT 10SM CLR 29/21 A3011 RMK A01
KRZR 221515Z AUTO VRB05KT 10SM CLR 28/21 A3011 RMK A01
KRZR 221455Z AUTO 22007KT 10SM CLR 28/20 A3011 RMK A01
KRZR 221435Z AUTO 17006KT 10SM CLR 27/21 A3011 RMK A01
KRZR 221415Z AUTO 19007KT 150V220 10SM CLR 26/21 A3011 RMK A01
KRZR 221355Z AUTO 19005KT 10SM CLR 26/21 A3011 RMK A01
KRZR 221335Z AUTO 21003KT 10SM CLR 25/20 A3011 RMK A01
KRZR 221315Z AUTO VRB03KT 10SM CLR 24/20 A3011 RMK A01
KRZR 221255Z AUTO 20003KT 10SM CLR 23/20 A3011 RMK A01
KRZR 221235Z AUTO 00000KT 10SM CLR 22/21 A3011 RMK A01
KRZR 221215Z AUTO 00000KT 10SM FEW120 20/20 A3011 RMK A01
KRZR 221155Z AUTO 00000KT 9SM CLR 19/19 A3010 RMK A01
KRZR 221135Z AUTO 00000KT 9SM CLR 19/19 A3010 RMK A01
KRZR 221115Z AUTO 00000KT 10SM CLR 19/19 A3010 RMK A01
KRZR 221055Z AUTO 00000KT 10SM CLR 19/19 A3009 RMK A01
KRZR 221035Z AUTO 00000KT 10SM CLR 20/20 A3009 RMK A01
KRZR 221015Z AUTO 00000KT 10SM CLR 20/20 A3009 RMK A01
KRZR 220955Z AUTO 00000KT 10SM FEW065 20/20 A3009 RMK A01
KRZR 220935Z AUTO 00000KT 10SM SCT065 20/20 A3009 RMK A01
KRZR 220915Z AUTO 00000KT 10SM SCT065 21/20 A3009 RMK A01
KRZR 220855Z AUTO 22003KT 10SM BKN060 20/20 A3009 RMK A01
KRZR 220835Z AUTO 00000KT 10SM OVC065 21/20 A3009 RMK A01
KRZR 220815Z AUTO 00000KT 10SM OVC065 21/20 A3009 RMK A01
KRZR 220755Z AUTO 00000KT 10SM OVC065 21/21 A3009 RMK A01
KRZR 220735Z AUTO 20003KT 10SM OVC065 22/21 A3009 RMK A01
KRZR 220715Z AUTO 00000KT 10SM OVC060 23/21 A3010 RMK A01
KRZR 220655Z AUTO 00000KT 10SM OVC060 22/21 A3010 RMK A01
KRZR 220635Z AUTO 00000KT 10SM BKN060 OVC070 23/21 A3010 RMK A01
KRZR 220615Z AUTO 00000KT 10SM BKN060 OVC070 23/21 A3011 RMK A01
KRZR 220555Z AUTO 00000KT 10SM OVC055 23/20 A3011 RMK A01
KRZR 220535Z AUTO 00000KT 10SM OVC055 23/21 A3011 RMK A01
KRZR 220515Z AUTO 00000KT 10SM OVC055 23/20 A3011 RMK A01
KRZR 220455Z AUTO 00000KT 10SM SCT050 BKN100 25/19 A3011 RMK A01
KRZR 220435Z AUTO 00000KT 10SM FEW055 SCT110 24/20 A3011 RMK A01
KRZR 220415Z AUTO 00000KT 10SM FEW049 BKN060 BKN110 24/20 A3011 RMK A01
KRZR 220355Z AUTO 00000KT 10SM FEW060 SCT100 SCT120 25/19 A3011 RMK A01
KRZR 220335Z AUTO 00000KT 10SM FEW100 BKN120 26/19 A3011 RMK A01
KRZR 220315Z AUTO VRB05KT 10SM FEW050 SCT120 26/19 A3010 RMK A01
KRZR 220255Z AUTO VRB05KT 10SM FEW100 SCT120 26/19 A3010 RMK A01
KRZR 220235Z AUTO 00000KT 10SM BKN100 BKN120 25/20 A3010 RMK A01
KRZR 220215Z AUTO 00000KT 10SM BKN100 BKN120 25/21 A3011 RMK A01
KRZR 220155Z AUTO VRB04KT 10SM SCT120 26/20 A3010 RMK A01
KRZR 220135Z AUTO 00000KT 10SM SCT100 BKN120 26/20 A3010 RMK A01
KRZR 220115Z AUTO 00000KT 10SM OVC100 25/21 A3010 RMK A01
KRZR 220055Z AUTO 00000KT 10SM SCT100 BKN120 25/21 A3009 RMK A01
KRZR 220035Z AUTO 00000KT 10SM BKN110 26/20 A3009 RMK A01
KRZR 220015Z AUTO 00000KT 10SM CLR 26/20 A3008 RMK A01